createdAt,value
2017-11-11T00:00:16.145Z,9.23
2017-11-11T00:02:44.936Z,9.10
2017-11-11T00:05:13.725Z,8.18
2017-11-11T00:07:43.505Z,8.30
2017-11-11T00:10:11.524Z,7.90
2017-11-11T00:12:47.660Z,8.77
2017-11-11T00:15:17.351Z,7.78
2017-11-11T00:17:50.884Z,9.05
2017-11-11T00:20:19.812Z,7.50
2017-11-11T00:22:49.832Z,7.50
2017-11-11T00:25:17.892Z,8.40
2017-11-11T00:27:53.464Z,8.98
2017-11-11T00:30:21.497Z,6.45
2017-11-11T00:32:51.413Z,8.23
2017-11-11T00:35:27.608Z,7.95
2017-11-11T00:37:59.432Z,7.97
2017-11-11T00:40:31.992Z,9.13
2017-11-11T00:43:00.913Z,9.63
2017-11-11T00:45:34.448Z,8.27
2017-11-11T00:48:05.161Z,8.23
2017-11-11T00:50:33.176Z,8.75
2017-11-11T00:53:03.148Z,8.40
2017-11-11T00:55:32.056Z,8.63
2017-11-11T00:58:12.228Z,8.65
2017-11-11T01:00:40.247Z,8.35
2017-11-11T01:03:08.259Z,8.93
2017-11-11T01:05:38.965Z,9.07
2017-11-11T01:08:07.944Z,8.82
2017-11-11T01:10:47.260Z,9.35
2017-11-11T01:13:18.431Z,8.98
2017-11-11T01:15:46.496Z,10.75
2017-11-11T01:18:17.735Z,8.93
2017-11-11T01:20:46.737Z,9.70
2017-11-11T01:23:15.720Z,9.88
2017-11-11T01:25:43.745Z,9.90
2017-11-11T01:28:11.788Z,9.20
2017-11-11T01:30:52.512Z,9.05
2017-11-11T01:33:22.460Z,8.80
2017-11-11T01:35:51.435Z,10.57
2017-11-11T01:38:19.456Z,8.98
2017-11-11T01:40:48.664Z,9.65
2017-11-11T01:43:17.411Z,9.35
2017-11-11T01:45:48.143Z,10.10
2017-11-11T01:48:18.041Z,9.73
2017-11-11T01:53:45.107Z,9.25
2017-11-11T01:56:14.132Z,10.18
2017-11-11T01:58:50.048Z,10.13
2017-11-11T02:01:18.080Z,9.05
2017-11-11T02:03:53.332Z,9.80
2017-11-11T02:06:21.399Z,11.60
2017-11-11T02:09:09.602Z,10.25
2017-11-11T02:11:39.319Z,9.90
2017-11-11T02:14:08.267Z,9.70
2017-11-11T02:16:37.275Z,9.38
2017-11-11T02:19:17.107Z,10.23
2017-11-11T02:21:49.149Z,9.88
2017-11-11T02:24:22.888Z,10.60
2017-11-11T02:26:51.867Z,10.13
2017-11-11T02:29:21.883Z,10.32
2017-11-11T02:31:57.848Z,10.85
2017-11-11T02:34:26.836Z,10.80
2017-11-11T02:36:59.521Z,10.60
2017-11-11T02:39:37.520Z,10.20
2017-11-11T02:42:11.034Z,9.93
2017-11-11T02:44:40.008Z,9.25
2017-11-11T02:47:11.183Z,10.82
2017-11-11T02:49:52.388Z,11.50
2017-11-11T02:52:29.216Z,10.75
2017-11-11T02:55:00.453Z,10.02
2017-11-11T02:57:33.035Z,8.25
2017-11-11T03:00:02.956Z,7.00
2017-11-11T03:02:32.963Z,8.30
2017-11-11T03:05:00.977Z,8.32
2017-11-11T03:07:28.991Z,9.13
2017-11-11T03:10:03.715Z,6.90
2017-11-11T03:12:31.735Z,8.73
2017-11-11T03:15:00.686Z,8.18
2017-11-11T03:17:34.295Z,8.18
2017-11-11T03:20:28.019Z,8.27
2017-11-11T03:22:58.015Z,8.75
2017-11-11T03:25:26.030Z,7.57
2017-11-11T03:28:03.915Z,6.87
2017-11-11T03:30:33.863Z,8.15
2017-11-11T03:33:13.374Z,7.70
2017-11-11T03:35:54.827Z,8.15
2017-11-11T03:38:34.924Z,7.18
2017-11-11T03:44:04.231Z,6.57
2017-11-11T03:46:37.550Z,6.60
2017-11-11T03:49:06.542Z,7.37
2017-11-11T03:51:34.606Z,8.18
2017-11-11T03:54:02.631Z,7.60
2017-11-11T03:59:28.210Z,6.43
2017-11-11T04:01:56.271Z,6.78
2017-11-11T04:04:26.299Z,7.57
2017-11-11T04:06:59.387Z,8.38
2017-11-11T04:09:27.403Z,7.53
2017-11-11T04:12:12.363Z,7.85
2017-11-11T04:14:40.395Z,9.38
2017-11-11T04:17:09.381Z,9.15
2017-11-11T04:19:37.413Z,8.23
2017-11-11T04:22:09.815Z,9.95
2017-11-11T04:27:35.142Z,9.68
2017-11-11T04:30:03.176Z,9.10
2017-11-11T04:32:33.135Z,9.85
2017-11-11T04:35:04.903Z,8.75
2017-11-11T04:37:32.958Z,11.00
2017-11-11T04:40:00.975Z,9.82
2017-11-11T04:42:33.215Z,9.98
2017-11-11T04:45:03.138Z,10.40
2017-11-11T04:47:31.164Z,10.48
2017-11-11T04:49:59.194Z,11.10
2017-11-11T04:52:44.470Z,10.25
2017-11-11T04:55:12.514Z,10.48
2017-11-11T04:57:44.978Z,11.57
2017-11-11T05:00:13.010Z,10.73
2017-11-11T05:02:45.518Z,10.57
2017-11-11T05:05:17.387Z,12.18
2017-11-11T05:07:59.627Z,10.55
2017-11-11T05:10:27.657Z,11.38
2017-11-11T05:12:55.686Z,10.82
2017-11-11T05:15:23.706Z,10.90
2017-11-11T05:17:57.970Z,14.00
2017-11-11T05:20:25.990Z,10.77
2017-11-11T05:22:54.014Z,12.65
2017-11-11T05:25:45.218Z,11.38
2017-11-11T05:28:23.638Z,11.88
2017-11-11T05:30:53.595Z,11.75
2017-11-11T05:33:34.109Z,11.93
2017-11-11T05:36:02.137Z,11.05
2017-11-11T05:38:31.918Z,11.20
2017-11-11T05:41:00.922Z,11.65
2017-11-11T05:43:31.650Z,12.63
2017-11-11T05:45:59.670Z,11.27
2017-11-11T05:48:33.911Z,10.75
2017-11-11T05:51:05.087Z,11.25
2017-11-11T05:53:38.694Z,11.60
2017-11-11T05:56:13.105Z,9.80
2017-11-11T05:58:42.104Z,11.32
2017-11-11T06:01:14.677Z,12.13
2017-11-11T06:03:42.718Z,11.68
2017-11-11T06:06:10.750Z,11.20
2017-11-11T06:08:47.778Z,11.35
2017-11-11T06:11:20.774Z,11.85
2017-11-11T06:13:48.835Z,12.05
2017-11-11T06:16:16.850Z,11.93
2017-11-11T06:19:02.654Z,10.98
2017-11-11T06:21:30.677Z,12.18
2017-11-11T06:24:22.670Z,11.25
2017-11-11T06:26:51.702Z,11.48
2017-11-11T06:29:27.169Z,12.70
2017-11-11T06:31:57.869Z,11.02
2017-11-11T06:34:26.881Z,12.05
2017-11-11T06:36:57.613Z,12.25
2017-11-11T06:39:36.541Z,11.80
2017-11-11T06:42:07.562Z,12.50
2017-11-11T06:47:42.169Z,13.95
2017-11-11T06:50:10.230Z,13.68
2017-11-11T06:52:39.233Z,13.15
2017-11-11T06:55:10.825Z,14.57
2017-11-11T06:57:43.606Z,14.05
2017-11-11T07:00:11.645Z,14.20
2017-11-11T07:02:39.667Z,15.60
2017-11-11T07:05:08.465Z,15.85
2017-11-11T07:07:51.721Z,16.00
2017-11-11T07:10:19.746Z,15.20
2017-11-11T07:12:48.537Z,17.17
2017-11-11T07:15:17.350Z,15.85
2017-11-11T07:17:47.317Z,17.40
2017-11-11T07:20:20.543Z,18.73
2017-11-11T07:22:56.949Z,17.70
2017-11-11T07:25:28.261Z,18.67
2017-11-11T07:28:00.881Z,18.58
2017-11-11T07:30:33.504Z,18.73
2017-11-11T07:33:03.505Z,18.70
2017-11-11T07:35:32.512Z,18.75
2017-11-11T07:38:08.133Z,17.90
2017-11-11T07:40:39.497Z,18.10
2017-11-11T07:43:08.321Z,19.80
2017-11-11T07:45:38.288Z,20.23
2017-11-11T07:48:19.121Z,21.37
2017-11-11T07:50:55.088Z,20.00
2017-11-11T07:56:04.577Z,21.20
2017-11-11T07:58:34.620Z,20.23
2017-11-11T08:01:08.920Z,19.05
2017-11-11T08:03:38.177Z,21.15
2017-11-11T08:06:08.576Z,16.85
2017-11-11T08:08:45.888Z,17.60
2017-11-11T08:11:16.196Z,15.75
2017-11-11T08:13:49.268Z,16.62
2017-11-11T08:16:21.365Z,15.82
2017-11-11T08:18:53.132Z,14.82
2017-11-11T08:21:21.204Z,14.52
2017-11-11T08:23:51.132Z,14.87
2017-11-11T08:26:20.445Z,13.77
2017-11-11T08:29:00.796Z,13.55
2017-11-11T08:31:34.840Z,15.13
2017-11-11T08:34:05.025Z,15.25
2017-11-11T08:36:37.712Z,14.15
2017-11-11T08:39:11.622Z,15.30
2017-11-11T08:41:43.943Z,15.00
2017-11-11T08:44:19.991Z,16.10
2017-11-11T08:47:09.145Z,14.80
2017-11-11T08:49:41.172Z,14.98
2017-11-11T08:52:12.512Z,16.08
2017-11-11T08:54:41.444Z,18.12
2017-11-11T08:57:19.773Z,16.12
2017-11-11T08:59:47.829Z,16.15
2017-11-11T09:02:20.817Z,15.20
2017-11-11T09:08:03.168Z,12.00
2017-11-11T09:10:32.088Z,12.37
2017-11-11T09:13:01.008Z,14.55
2017-11-11T09:15:29.981Z,14.65
2017-11-11T09:17:59.980Z,14.82
2017-11-11T09:20:28.040Z,15.60
2017-11-11T09:22:57.497Z,17.15
2017-11-11T09:25:25.720Z,14.73
2017-11-11T09:27:55.596Z,16.90
2017-11-11T09:30:25.592Z,15.15
2017-11-11T09:32:54.540Z,14.55
2017-11-11T09:35:22.940Z,14.80
2017-11-11T09:38:05.061Z,12.93
2017-11-11T09:40:34.138Z,14.73
2017-11-11T09:43:02.924Z,15.25
2017-11-11T09:45:32.056Z,11.70
2017-11-11T09:48:02.007Z,13.15
2017-11-11T09:50:33.440Z,11.38
2017-11-11T09:53:05.128Z,11.35
2017-11-11T09:55:33.168Z,11.80
2017-11-11T09:58:05.617Z,12.57
2017-11-11T10:00:39.368Z,13.52
2017-11-11T10:03:09.295Z,12.20
2017-11-11T10:05:50.620Z,14.00
2017-11-11T10:08:21.991Z,15.20
2017-11-11T10:10:51.037Z,11.10
2017-11-11T10:13:24.380Z,10.73
2017-11-11T10:15:54.440Z,11.02
2017-11-11T10:18:27.246Z,9.77
2017-11-11T10:21:00.072Z,8.70
2017-11-11T10:23:28.100Z,10.05
2017-11-11T10:25:56.152Z,8.00
2017-11-11T10:28:39.188Z,10.02
2017-11-11T10:31:08.124Z,8.15
2017-11-11T10:33:36.159Z,8.30
2017-11-11T10:36:04.180Z,8.40
2017-11-11T10:38:38.503Z,8.00
2017-11-11T10:41:14.207Z,7.87
2017-11-11T10:43:45.471Z,7.47
2017-11-11T10:46:13.500Z,6.50
2017-11-11T10:48:41.529Z,7.57
2017-11-11T10:51:10.432Z,6.37
2017-11-11T10:53:42.571Z,6.35
2017-11-11T10:56:10.583Z,6.30
2017-11-11T10:58:38.600Z,6.03
2017-11-11T11:01:07.616Z,6.60
2017-11-11T11:03:41.375Z,5.90
2017-11-11T11:06:11.325Z,6.12
2017-11-11T11:08:41.347Z,5.70
2017-11-11T11:11:09.356Z,6.32
2017-11-11T11:13:37.379Z,5.25
2017-11-11T11:16:06.372Z,6.03
2017-11-11T11:18:34.383Z,5.90
2017-11-11T11:21:02.471Z,7.25
2017-11-11T11:23:36.111Z,5.68
2017-11-11T11:26:08.175Z,5.80
2017-11-11T11:28:39.431Z,5.65
2017-11-11T11:31:08.360Z,5.97
2017-11-11T11:33:37.307Z,8.07
2017-11-11T11:36:06.303Z,7.70
2017-11-11T11:38:35.227Z,5.32
2017-11-11T11:41:03.255Z,6.40
2017-11-11T11:43:32.187Z,7.10
2017-11-11T11:46:01.027Z,6.95
2017-11-11T11:48:30.067Z,6.43
2017-11-11T11:50:58.847Z,5.70
2017-11-11T11:53:27.651Z,5.75
2017-11-11T11:55:57.683Z,6.05
2017-11-11T11:58:28.935Z,6.50
2017-11-11T12:00:57.878Z,5.78
2017-11-11T12:03:25.923Z,5.05
2017-11-11T12:05:53.971Z,5.87
2017-11-11T12:08:25.115Z,7.18
2017-11-11T12:10:53.138Z,5.05
2017-11-11T12:13:30.597Z,6.05
2017-11-11T12:15:59.679Z,5.45
2017-11-11T12:18:27.753Z,6.93
2017-11-11T12:20:55.767Z,6.32
2017-11-11T12:23:25.573Z,5.70
2017-11-11T12:25:57.003Z,5.90
2017-11-11T12:28:29.766Z,3.85
2017-11-11T12:30:57.859Z,6.00
2017-11-11T12:33:29.299Z,6.25
2017-11-11T12:36:03.102Z,4.72
2017-11-11T12:38:31.154Z,6.65
2017-11-11T12:41:01.091Z,5.47
2017-11-11T12:43:31.130Z,4.80
2017-11-11T12:46:00.925Z,7.40
2017-11-11T12:48:34.042Z,5.62
2017-11-11T12:51:03.831Z,5.45
2017-11-11T12:53:32.847Z,5.50
2017-11-11T12:56:00.905Z,4.82
2017-11-11T12:58:32.346Z,5.25
2017-11-11T13:01:00.386Z,4.47
2017-11-11T13:03:32.986Z,4.90
2017-11-11T13:06:01.995Z,5.28
2017-11-11T13:08:30.022Z,4.50
2017-11-11T13:10:58.066Z,5.45
2017-11-11T13:13:27.013Z,5.65
2017-11-11T13:15:55.919Z,5.10
2017-11-11T13:18:25.695Z,5.68
2017-11-11T13:20:53.718Z,5.43
2017-11-11T13:23:21.742Z,5.40
2017-11-11T13:25:50.726Z,6.18
2017-11-11T13:28:18.762Z,7.10
2017-11-11T13:30:51.814Z,4.93
2017-11-11T13:33:21.656Z,5.62
2017-11-11T13:35:54.931Z,5.55
2017-11-11T13:38:23.726Z,4.68
2017-11-11T13:40:57.867Z,4.90
2017-11-11T13:43:25.911Z,5.00
2017-11-11T13:45:54.857Z,4.72
2017-11-11T13:48:22.882Z,5.30
2017-11-11T13:50:54.382Z,4.00
2017-11-11T13:53:22.401Z,3.80
2017-11-11T13:55:54.078Z,5.25
2017-11-11T13:58:24.018Z,4.50
2017-11-11T14:00:57.430Z,4.10
2017-11-11T14:03:30.393Z,4.43
2017-11-11T14:05:58.417Z,4.35
2017-11-11T14:08:38.810Z,4.20
2017-11-11T14:11:10.813Z,4.70
2017-11-11T14:13:40.510Z,4.47
2017-11-11T14:16:08.538Z,4.35
2017-11-11T14:18:38.462Z,4.32
2017-11-11T14:21:08.369Z,4.35
2017-11-11T14:23:37.390Z,4.57
2017-11-11T14:26:08.165Z,4.62
2017-11-11T14:29:01.341Z,4.80
2017-11-11T14:31:34.173Z,4.60
2017-11-11T14:34:02.201Z,4.03
2017-11-11T14:36:51.870Z,5.03
2017-11-11T14:39:23.471Z,4.85
2017-11-11T14:41:51.518Z,4.32
2017-11-11T14:44:23.402Z,7.28
2017-11-11T14:47:02.894Z,4.85
2017-11-11T14:49:55.411Z,6.57
2017-11-11T14:52:28.812Z,5.20
2017-11-11T14:55:08.369Z,5.53
2017-11-11T14:57:39.584Z,5.25
2017-11-11T15:00:14.975Z,5.47
2017-11-11T15:02:43.009Z,6.20
2017-11-11T15:05:18.502Z,6.07
2017-11-11T15:07:48.569Z,6.00
2017-11-11T15:10:19.265Z,6.40
2017-11-11T15:12:48.198Z,5.37
2017-11-11T15:15:22.921Z,4.40
2017-11-11T15:17:52.913Z,4.53
2017-11-11T15:20:22.817Z,4.53
2017-11-11T15:25:46.697Z,4.07
2017-11-11T15:28:19.505Z,4.65
2017-11-11T15:33:48.474Z,3.90
2017-11-11T15:36:22.306Z,4.97
2017-11-11T15:39:06.957Z,3.95
2017-11-11T15:41:42.406Z,5.57
2017-11-11T15:44:17.029Z,4.55
2017-11-11T15:46:52.473Z,5.60
2017-11-11T15:49:22.414Z,4.85
2017-11-11T15:51:52.188Z,4.82
2017-11-11T15:54:20.210Z,5.03
2017-11-11T15:56:50.182Z,4.50
2017-11-11T15:59:18.206Z,5.18
2017-11-11T16:01:46.221Z,5.25
2017-11-11T16:04:20.152Z,5.87
2017-11-11T16:06:59.906Z,5.37
2017-11-11T16:09:44.569Z,5.12
2017-11-11T16:12:22.605Z,5.57
2017-11-11T16:14:51.637Z,5.12
2017-11-11T16:17:20.617Z,6.30
2017-11-11T16:20:02.461Z,5.37
2017-11-11T16:22:45.057Z,5.07
2017-11-11T16:25:18.319Z,5.40
2017-11-11T16:27:47.297Z,5.07
2017-11-11T16:30:16.292Z,5.05
2017-11-11T16:32:49.873Z,5.20
2017-11-11T16:35:22.745Z,5.50
2017-11-11T16:37:56.460Z,5.57
2017-11-11T16:40:28.146Z,5.25
2017-11-11T16:43:06.969Z,5.00
2017-11-11T16:45:45.037Z,4.35
2017-11-11T16:48:23.949Z,4.40
2017-11-11T16:50:57.766Z,5.10
2017-11-11T16:53:27.453Z,4.70
2017-11-11T16:56:01.489Z,4.80
2017-11-11T16:58:33.225Z,4.47
2017-11-11T17:01:02.161Z,4.28
2017-11-11T17:03:30.181Z,4.82
2017-11-11T17:05:59.101Z,5.32
2017-11-11T17:08:27.132Z,4.35
2017-11-11T17:10:55.932Z,6.05
2017-11-11T17:13:23.960Z,4.85
2017-11-11T17:15:55.300Z,11.73
2017-11-11T17:18:26.934Z,5.10
2017-11-11T17:21:04.716Z,4.70
2017-11-11T17:23:32.753Z,4.60
2017-11-11T17:26:01.545Z,5.72
2017-11-11T17:28:30.323Z,4.78
2017-11-11T17:31:01.044Z,4.47
2017-11-11T17:33:29.976Z,5.45
2017-11-11T17:35:59.941Z,5.93
2017-11-11T17:38:31.796Z,5.03
2017-11-11T17:40:59.816Z,6.15
2017-11-11T17:43:29.769Z,7.80
2017-11-11T17:46:00.822Z,6.10
2017-11-11T17:48:30.837Z,6.00
2017-11-11T17:50:58.852Z,4.93
2017-11-11T17:53:26.887Z,5.10
2017-11-11T17:56:02.480Z,5.87
2017-11-11T17:58:33.262Z,4.45
2017-11-11T18:01:05.216Z,5.35
2017-11-11T18:03:34.225Z,4.90
2017-11-11T18:06:02.232Z,5.90
2017-11-11T18:08:33.632Z,6.93
2017-11-11T18:11:03.632Z,7.20
2017-11-11T18:13:38.165Z,5.53
2017-11-11T18:16:09.396Z,5.50
2017-11-11T18:18:40.060Z,7.85
2017-11-11T18:21:08.840Z,6.70
2017-11-11T18:23:51.340Z,5.10
2017-11-11T18:26:23.828Z,5.15
2017-11-11T18:28:57.633Z,10.15
2017-11-11T18:31:37.112Z,9.52
2017-11-11T18:34:06.041Z,4.95
2017-11-11T18:36:37.792Z,7.15
2017-11-11T18:39:06.828Z,5.50
2017-11-11T18:41:38.852Z,6.15
2017-11-11T18:44:12.804Z,5.22
2017-11-11T18:46:53.093Z,4.12
2017-11-11T18:49:21.132Z,4.68
2017-11-11T18:51:50.060Z,4.70
2017-11-11T18:54:19.985Z,4.70
2017-11-11T18:56:52.584Z,4.37
2017-11-11T18:59:22.576Z,4.75
2017-11-11T19:01:50.624Z,4.65
2017-11-11T19:04:18.639Z,5.55
2017-11-11T19:06:47.622Z,5.12
2017-11-11T19:09:16.615Z,4.03
2017-11-11T19:11:45.623Z,4.47
2017-11-11T19:14:20.225Z,4.35
2017-11-11T19:16:49.235Z,4.53
2017-11-11T19:19:17.257Z,4.40
2017-11-11T19:21:45.288Z,5.37
2017-11-11T19:24:15.068Z,4.18
2017-11-11T19:26:55.783Z,4.25
2017-11-11T19:29:23.807Z,4.10
2017-11-11T19:31:51.819Z,5.00
2017-11-11T19:34:19.844Z,4.57
2017-11-11T19:36:47.884Z,5.35
2017-11-11T19:39:17.799Z,6.95
2017-11-11T19:41:46.810Z,6.68
2017-11-11T19:44:16.844Z,4.45
2017-11-11T19:46:45.839Z,8.05
2017-11-11T19:49:14.750Z,4.50
2017-11-11T19:51:44.544Z,6.10
2017-11-11T19:54:14.458Z,4.93
2017-11-11T19:56:44.463Z,5.35
2017-11-11T19:59:16.488Z,11.52
2017-11-11T20:01:48.227Z,6.82
2017-11-11T20:04:17.167Z,4.07
2017-11-11T20:06:45.195Z,4.90
2017-11-11T20:09:16.899Z,5.80
2017-11-11T20:11:44.911Z,6.45
2017-11-11T20:14:20.096Z,3.72
2017-11-11T20:16:48.107Z,3.95
2017-11-11T20:19:20.659Z,5.80
2017-11-11T20:21:53.479Z,3.95
2017-11-11T20:24:26.242Z,5.70
2017-11-11T20:26:56.951Z,4.53
2017-11-11T20:29:24.978Z,3.50
2017-11-11T20:31:55.122Z,3.22
2017-11-11T20:34:24.119Z,5.75
2017-11-11T20:36:54.187Z,9.68
2017-11-11T20:39:23.955Z,3.33
2017-11-11T20:41:51.984Z,6.15
2017-11-11T20:44:21.943Z,4.12
2017-11-11T20:46:49.960Z,4.93
2017-11-11T20:49:19.891Z,6.90
2017-11-11T20:51:49.592Z,4.65
2017-11-11T20:54:23.869Z,8.43
2017-11-11T20:56:51.891Z,4.57
2017-11-11T20:59:22.851Z,2.60
2017-11-11T21:01:51.856Z,3.35
2017-11-11T21:04:21.779Z,2.67
2017-11-11T21:06:50.695Z,2.37
2017-11-11T21:09:24.102Z,3.08
2017-11-11T21:11:54.054Z,3.60
2017-11-11T21:14:22.091Z,3.35
2017-11-11T21:16:50.199Z,4.43
2017-11-11T21:19:23.092Z,5.93
2017-11-11T21:21:51.135Z,6.70
2017-11-11T21:24:20.143Z,4.15
2017-11-11T21:26:54.043Z,6.60
2017-11-11T21:29:22.072Z,4.47
2017-11-11T21:31:50.858Z,4.57
2017-11-11T21:34:18.886Z,3.35
2017-11-11T21:36:47.799Z,4.30
2017-11-11T21:39:17.583Z,2.67
2017-11-11T21:41:45.605Z,3.53
2017-11-11T21:44:14.563Z,3.35
2017-11-11T21:46:43.479Z,3.80
2017-11-11T21:49:11.510Z,3.87
2017-11-11T21:51:40.443Z,4.00
2017-11-11T21:54:12.862Z,4.00
2017-11-11T21:56:45.643Z,5.72
2017-11-11T21:59:13.674Z,4.03
2017-11-11T22:01:41.706Z,3.30
2017-11-11T22:04:10.627Z,3.08
2017-11-11T22:06:40.611Z,3.90
2017-11-11T22:09:13.286Z,3.90
2017-11-11T22:11:41.311Z,3.00
2017-11-11T22:14:14.291Z,1.92
2017-11-11T22:16:43.230Z,3.47
2017-11-11T22:19:17.948Z,3.28
2017-11-11T22:21:45.978Z,2.72
2017-11-11T22:24:13.998Z,3.20
2017-11-11T22:26:42.979Z,3.00
2017-11-11T22:29:11.902Z,2.70
2017-11-11T22:31:41.686Z,2.60
2017-11-11T22:34:10.674Z,2.08
2017-11-11T22:36:39.690Z,4.93
2017-11-11T22:39:09.610Z,3.95
2017-11-11T22:41:39.394Z,3.65
2017-11-11T22:44:08.378Z,4.60
2017-11-11T22:46:36.398Z,4.20
2017-11-11T22:49:08.274Z,4.57
2017-11-11T22:51:39.962Z,3.75
2017-11-11T22:54:07.994Z,4.20
2017-11-11T22:56:48.678Z,4.55
2017-11-11T22:59:16.698Z,5.72
2017-11-11T23:01:47.398Z,5.62
2017-11-11T23:04:22.027Z,6.37
2017-11-11T23:06:50.042Z,5.85
2017-11-11T23:09:18.074Z,5.85
2017-11-11T23:11:46.097Z,7.72
2017-11-11T23:14:14.874Z,6.40
2017-11-11T23:16:43.810Z,7.55
2017-11-11T23:19:11.839Z,8.90
2017-11-11T23:21:40.791Z,7.72
2017-11-11T23:24:09.766Z,8.70
2017-11-11T23:26:41.241Z,9.10
2017-11-11T23:29:10.202Z,8.65
2017-11-11T23:31:41.811Z,9.10
2017-11-11T23:34:11.586Z,10.32
2017-11-11T23:36:40.570Z,9.50
2017-11-11T23:39:08.597Z,9.80
2017-11-11T23:41:37.633Z,10.05
2017-11-11T23:44:16.502Z,9.50
2017-11-11T23:46:44.525Z,9.05
2017-11-11T23:49:12.550Z,8.10
2017-11-11T23:51:47.194Z,8.52
2017-11-11T23:54:16.214Z,9.45
2017-11-11T23:56:44.242Z,9.23
2017-11-11T23:59:18.004Z,8.48
